Time;durP1;ratioP1;P1;durP2;ratioP2;P2;SDS_P1;SDS_P2;PMS_P1;PMS_P2;Temp;Humidity;BMP_temperature;BMP_pressure;BME280_temperature;BME280_humidity;BME280_pressure;Samples;Min_cycle;Max_cycle;Signal;HPM_P1;HPM_P2
2023/06/10 00:00:26;;;;;;;12.02;10.82;;;20.10;99.90;;;;;;2095881;28;20054;-77
2023/06/10 00:01:28;;;;;;;11.52;10.50;;;20.10;99.90;;;;;;2098307;28;20047;-73
2023/06/10 00:02:29;;;;;;;12.38;10.55;;;20.10;99.90;;;;;;2086536;28;20044;-75
2023/06/10 00:03:29;;;;;;;12.10;10.90;;;20.10;99.90;;;;;;2081778;28;20021;-74
2023/06/10 00:04:30;;;;;;;12.68;11.48;;;20.10;99.90;;;;;;2092830;28;20036;-76
2023/06/10 00:05:31;;;;;;;11.20;10.20;;;20.00;99.90;;;;;;2094500;28;20044;-77
2023/06/10 00:06:35;;;;;;;12.18;10.98;;;20.10;99.90;;;;;;2094083;28;20055;-75
2023/06/10 00:07:37;;;;;;;11.48;10.27;;;20.10;99.90;;;;;;2101085;28;20054;-75
2023/06/10 00:08:39;;;;;;;12.35;11.15;;;20.00;99.90;;;;;;2096763;28;20215;-76
2023/06/10 00:09:40;;;;;;;11.93;10.82;;;20.10;99.90;;;;;;2102380;28;20394;-77
2023/06/10 00:10:41;;;;;;;12.25;10.80;;;20.00;99.90;;;;;;2098103;28;20060;-77
2023/06/10 00:11:42;;;;;;;11.60;10.50;;;20.00;99.90;;;;;;2101831;28;20039;-77
2023/06/10 00:12:43;;;;;;;11.80;10.70;;;20.00;99.90;;;;;;2093499;28;20032;-77
2023/06/10 00:13:44;;;;;;;11.98;10.70;;;20.00;99.90;;;;;;2090939;28;20040;-77
2023/06/10 00:14:44;;;;;;;11.98;10.88;;;20.00;99.90;;;;;;2100073;28;20055;-75
2023/06/10 00:15:45;;;;;;;12.38;11.10;;;20.00;99.90;;;;;;2102414;28;20165;-77
2023/06/10 00:16:46;;;;;;;13.48;11.18;;;20.00;99.90;;;;;;2092816;28;20041;-77
2023/06/10 00:17:46;;;;;;;12.23;10.98;;;20.00;99.90;;;;;;2100654;28;20038;-76
2023/06/10 00:18:48;;;;;;;12.63;11.32;;;20.00;99.90;;;;;;2101829;28;20027;-76
2023/06/10 00:19:50;;;;;;;11.30;10.20;;;19.90;99.90;;;;;;2083247;28;20115;-77
2023/06/10 00:20:54;;;;;;;11.57;10.45;;;19.90;99.90;;;;;;2086874;28;20025;-77
2023/06/10 00:21:56;;;;;;;11.88;10.77;;;19.90;99.90;;;;;;2092978;28;20194;-77
2023/06/10 00:22:59;;;;;;;11.50;10.40;;;19.90;99.90;;;;;;2094408;28;20413;-75
2023/06/10 00:24:02;;;;;;;11.63;10.43;;;19.90;99.90;;;;;;2092761;28;20056;-77
2023/06/10 00:25:05;;;;;;;11.13;10.10;;;19.90;99.90;;;;;;2100013;28;20317;-75
2023/06/10 00:26:07;;;;;;;11.40;10.13;;;19.90;99.90;;;;;;2097568;28;20052;-77
2023/06/10 00:27:07;;;;;;;11.55;10.45;;;19.90;99.90;;;;;;2100728;28;20518;-76
2023/06/10 00:28:08;;;;;;;12.20;10.32;;;19.90;99.90;;;;;;2092280;28;20063;-76
2023/06/10 00:29:09;;;;;;;12.15;10.95;;;19.90;99.90;;;;;;2093788;28;20036;-77
2023/06/10 00:30:10;;;;;;;14.18;12.05;;;19.90;99.90;;;;;;2099661;28;20119;-77
2023/06/10 00:31:11;;;;;;;13.20;11.90;;;19.90;99.90;;;;;;2102655;28;20031;-76
2023/06/10 00:32:13;;;;;;;12.85;11.50;;;19.80;99.90;;;;;;2091680;28;20033;-76
2023/06/10 00:33:13;;;;;;;12.85;11.52;;;19.80;99.90;;;;;;2084194;28;20041;-76
2023/06/10 00:34:14;;;;;;;13.25;11.15;;;19.80;99.90;;;;;;2094197;28;20021;-75
2023/06/10 00:35:15;;;;;;;11.98;10.55;;;19.80;99.90;;;;;;2096760;28;20058;-75
2023/06/10 00:36:15;;;;;;;11.50;10.40;;;19.80;99.90;;;;;;2095706;28;20127;-75
2023/06/10 00:37:16;;;;;;;11.57;10.38;;;19.80;99.90;;;;;;2094072;28;20028;-75
2023/06/10 00:38:17;;;;;;;10.80;9.77;;;19.70;99.90;;;;;;2100684;28;20027;-75
2023/06/10 00:39:17;;;;;;;10.75;9.43;;;19.80;99.90;;;;;;2100000;28;20319;-76
2023/06/10 00:40:18;;;;;;;11.02;9.93;;;19.80;99.90;;;;;;2098672;28;20047;-76
2023/06/10 00:41:18;;;;;;;10.55;9.55;;;19.80;99.90;;;;;;2093901;28;20518;-75
2023/06/10 00:42:19;;;;;;;11.50;9.82;;;19.70;99.90;;;;;;2094918;28;20028;-76
2023/06/10 00:43:20;;;;;;;10.85;9.55;;;19.80;99.90;;;;;;2097812;28;20149;-75
2023/06/10 00:44:21;;;;;;;11.65;9.60;;;19.70;99.90;;;;;;2100888;28;20426;-76
2023/06/10 00:45:21;;;;;;;12.85;9.68;;;19.80;99.90;;;;;;2100326;28;20510;-76
2023/06/10 00:46:25;;;;;;;10.43;9.43;;;19.80;99.90;;;;;;2093393;28;20161;-76
2023/06/10 00:47:26;;;;;;;10.30;9.23;;;19.80;99.90;;;;;;2095241;28;20041;-75
2023/06/10 00:48:27;;;;;;;11.82;9.30;;;19.80;99.90;;;;;;2105252;28;20408;-76
2023/06/10 00:49:28;;;;;;;9.70;8.80;;;19.80;99.90;;;;;;2085618;28;20090;-76
2023/06/10 00:50:30;;;;;;;9.85;8.80;;;19.80;99.90;;;;;;2094352;28;20107;-76
2023/06/10 00:51:31;;;;;;;10.10;9.10;;;19.70;99.90;;;;;;2102990;28;20025;-76
2023/06/10 00:52:33;;;;;;;10.45;9.45;;;19.70;99.90;;;;;;2098150;28;20231;-74
2023/06/10 00:53:34;;;;;;;10.80;9.80;;;19.70;99.90;;;;;;2098412;28;20043;-74
2023/06/10 00:54:36;;;;;;;11.52;9.50;;;19.70;99.90;;;;;;2101803;28;20158;-75
2023/06/10 00:55:37;;;;;;;10.80;9.77;;;19.70;99.90;;;;;;2091776;28;20028;-76
2023/06/10 00:56:38;;;;;;;11.60;9.43;;;19.70;99.90;;;;;;2092296;28;20040;-76
2023/06/10 00:57:38;;;;;;;10.18;9.27;;;19.70;99.90;;;;;;2095971;28;20047;-75
2023/06/10 00:58:40;;;;;;;10.30;9.30;;;19.70;99.90;;;;;;2104747;28;20304;-76
2023/06/10 00:59:42;;;;;;;11.00;9.63;;;19.60;99.90;;;;;;2098299;28;20111;-76
2023/06/10 01:00:45;;;;;;;9.80;8.85;;;19.60;99.90;;;;;;2098662;28;20054;-76
2023/06/10 01:01:47;;;;;;;11.05;9.93;;;19.60;99.90;;;;;;2089850;28;20986;-76
2023/06/10 01:02:47;;;;;;;10.80;9.70;;;19.50;99.90;;;;;;2088526;28;20024;-76
2023/06/10 01:03:48;;;;;;;11.75;9.77;;;19.50;99.90;;;;;;2100508;28;20016;-76
2023/06/10 01:04:49;;;;;;;11.05;9.93;;;19.50;99.90;;;;;;2100063;28;20100;-76
2023/06/10 01:05:58;;;;;;;10.80;9.70;;;19.50;99.90;;;;;;2101959;28;20118;-76
2023/06/10 01:07:27;;;;;;;10.70;9.68;;;19.40;99.90;;;;;;2095922;28;20077;-76
2023/06/10 01:09:04;;;;;;;11.43;9.85;;;19.40;99.90;;;;;;2090161;28;20085;-75
2023/06/10 01:10:19;;;;;;;10.65;9.65;;;19.30;99.90;;;;;;2099667;28;20287;-76
2023/06/10 01:11:28;;;;;;;11.07;9.98;;;19.30;99.90;;;;;;2090513;28;20083;-76
2023/06/10 01:13:02;;;;;;;10.27;9.27;;;19.20;99.90;;;;;;2086993;28;20048;-76
2023/06/10 01:14:05;;;;;;;10.75;9.65;;;19.20;99.90;;;;;;2092711;28;20028;-75
2023/06/10 01:15:07;;;;;;;11.00;10.00;;;19.20;99.90;;;;;;2094872;28;20425;-76
2023/06/10 01:16:09;;;;;;;11.00;9.95;;;19.20;99.90;;;;;;2084176;28;20415;-76
2023/06/10 01:17:10;;;;;;;11.40;9.95;;;19.10;99.90;;;;;;2100886;28;20028;-75
2023/06/10 01:18:17;;;;;;;11.02;9.88;;;19.10;99.90;;;;;;2100626;28;20104;-73
2023/06/10 01:19:17;;;;;;;11.18;10.07;;;19.10;99.90;;;;;;2090427;28;20232;-74
2023/06/10 01:20:18;;;;;;;11.02;9.93;;;19.10;99.90;;;;;;2090953;28;20216;-75
2023/06/10 01:21:26;;;;;;;11.55;10.35;;;19.00;99.90;;;;;;2097172;28;20519;-75
2023/06/10 01:22:28;;;;;;;11.15;10.05;;;19.00;99.90;;;;;;2094798;28;20064;-76
2023/06/10 01:23:29;;;;;;;13.25;10.23;;;19.00;99.90;;;;;;2101939;28;20036;-76
2023/06/10 01:24:32;;;;;;;11.68;10.57;;;19.00;99.90;;;;;;2100184;28;20036;-75
2023/06/10 01:25:38;;;;;;;12.63;10.65;;;19.00;99.90;;;;;;2096762;28;20139;-75
2023/06/10 01:26:41;;;;;;;11.50;10.30;;;19.00;99.90;;;;;;2092216;28;20098;-75
2023/06/10 01:27:44;;;;;;;11.82;10.20;;;18.90;99.90;;;;;;2090809;28;20237;-75
2023/06/10 01:28:58;;;;;;;12.10;10.90;;;18.90;99.90;;;;;;2074520;28;20025;-75
2023/06/10 01:30:11;;;;;;;11.15;10.15;;;18.90;99.90;;;;;;2077327;28;20463;-75
2023/06/10 01:31:38;;;;;;;11.73;10.60;;;18.80;99.90;;;;;;2084648;28;20500;-75
2023/06/10 01:32:44;;;;;;;11.98;10.77;;;18.80;99.90;;;;;;2092147;28;20400;-75
2023/06/10 01:33:52;;;;;;;11.85;10.63;;;18.80;99.90;;;;;;2087876;28;20052;-75
2023/06/10 01:34:55;;;;;;;11.85;10.65;;;18.70;99.90;;;;;;2091018;28;20035;-76
2023/06/10 01:35:58;;;;;;;11.57;10.25;;;18.70;99.90;;;;;;2090361;28;20036;-74
2023/06/10 01:36:59;;;;;;;12.25;11.05;;;18.70;99.90;;;;;;2094825;28;20039;-75
2023/06/10 01:38:02;;;;;;;12.05;10.95;;;18.70;99.90;;;;;;2097984;28;20028;-73
2023/06/10 01:39:04;;;;;;;12.07;10.85;;;18.70;99.90;;;;;;2092032;28;20082;-75
2023/06/10 01:40:07;;;;;;;13.38;11.50;;;18.70;99.90;;;;;;2092031;28;20534;-74
2023/06/10 01:41:11;;;;;;;12.48;11.20;;;18.60;99.90;;;;;;2091776;28;20020;-75
2023/06/10 01:42:12;;;;;;;12.43;11.00;;;18.60;99.90;;;;;;2094777;28;20504;-75
2023/06/10 01:43:13;;;;;;;12.85;11.55;;;18.60;99.90;;;;;;2100771;28;20085;-76
2023/06/10 01:44:21;;;;;;;13.82;11.57;;;18.50;99.90;;;;;;2099662;28;20122;-76
2023/06/10 01:45:22;;;;;;;12.70;11.30;;;18.50;99.90;;;;;;2088635;28;20035;-75
2023/06/10 01:46:22;;;;;;;13.57;11.80;;;18.50;99.90;;;;;;2080878;28;20787;-74
2023/06/10 01:47:23;;;;;;;13.00;11.60;;;18.50;99.90;;;;;;2097462;28;20039;-75
2023/06/10 01:48:23;;;;;;;12.45;10.90;;;18.50;99.90;;;;;;2097739;28;20469;-75
2023/06/10 01:49:26;;;;;;;12.95;11.70;;;18.40;99.90;;;;;;2100613;28;20059;-75
2023/06/10 01:50:26;;;;;;;12.18;11.07;;;18.40;99.90;;;;;;2099806;28;20585;-74
2023/06/10 01:51:27;;;;;;;12.65;11.40;;;18.40;99.90;;;;;;2091926;28;20119;-75
2023/06/10 01:52:28;;;;;;;12.43;11.23;;;18.40;99.90;;;;;;2085836;28;20020;-76
2023/06/10 01:53:28;;;;;;;13.32;11.93;;;18.40;99.90;;;;;;2100104;28;20022;-75
2023/06/10 01:54:29;;;;;;;13.23;11.82;;;18.30;99.90;;;;;;2099200;28;20058;-76
2023/06/10 01:55:29;;;;;;;12.85;11.50;;;18.30;99.90;;;;;;2096829;28;20023;-76
2023/06/10 01:56:30;;;;;;;12.38;11.20;;;18.30;99.90;;;;;;2099013;28;20028;-75
2023/06/10 01:57:31;;;;;;;12.80;11.50;;;18.30;99.90;;;;;;2098187;28;20031;-75
2023/06/10 01:58:31;;;;;;;11.80;10.68;;;18.30;99.90;;;;;;2091288;28;20415;-76
2023/06/10 01:59:32;;;;;;;12.55;11.35;;;18.30;99.90;;;;;;2085831;28;20043;-76
2023/06/10 02:00:32;;;;;;;13.57;12.02;;;18.30;99.90;;;;;;2084138;28;20027;-77
2023/06/10 02:01:33;;;;;;;15.65;12.02;;;18.20;99.90;;;;;;2100237;28;20251;-76
2023/06/10 02:02:34;;;;;;;12.63;11.32;;;18.30;99.90;;;;;;2100934;28;20044;-75
2023/06/10 02:03:34;;;;;;;12.70;11.40;;;18.20;99.90;;;;;;2101848;28;20042;-75
2023/06/10 02:04:36;;;;;;;12.65;11.35;;;18.20;99.90;;;;;;2098026;28;20074;-76
2023/06/10 02:05:37;;;;;;;13.32;11.88;;;18.20;99.90;;;;;;2096932;28;20109;-76
2023/06/10 02:06:38;;;;;;;14.05;12.00;;;18.20;99.90;;;;;;2100487;28;20033;-76
2023/06/10 02:07:38;;;;;;;14.00;12.60;;;18.20;99.90;;;;;;2081741;28;20576;-76
2023/06/10 02:08:39;;;;;;;12.95;11.75;;;18.10;99.90;;;;;;2095664;28;20024;-75
2023/06/10 02:09:39;;;;;;;13.65;12.30;;;18.10;99.90;;;;;;2099770;28;20032;-76
2023/06/10 02:10:40;;;;;;;14.18;12.23;;;18.10;99.90;;;;;;2094999;28;20663;-75
2023/06/10 02:11:41;;;;;;;13.45;12.05;;;18.10;99.90;;;;;;2089001;28;20046;-76
2023/06/10 02:12:41;;;;;;;12.70;11.50;;;18.10;99.90;;;;;;2088305;28;20036;-75
2023/06/10 02:13:42;;;;;;;13.73;12.32;;;18.10;99.90;;;;;;2085045;28;20515;-76
2023/06/10 02:14:43;;;;;;;13.25;11.95;;;18.00;99.90;;;;;;2087163;28;20126;-76
2023/06/10 02:15:44;;;;;;;13.90;12.50;;;18.00;99.90;;;;;;2086556;28;20033;-76
2023/06/10 02:16:46;;;;;;;13.57;12.27;;;18.00;99.90;;;;;;2094445;28;20052;-75
2023/06/10 02:17:48;;;;;;;13.35;11.73;;;18.00;99.90;;;;;;2099625;28;20060;-75
2023/06/10 02:18:49;;;;;;;13.40;12.00;;;17.90;99.90;;;;;;2098665;28;20020;-75
2023/06/10 02:19:52;;;;;;;13.93;12.48;;;17.90;99.90;;;;;;2099696;28;20227;-75
2023/06/10 02:20:53;;;;;;;14.05;12.63;;;17.90;99.90;;;;;;2099553;28;20107;-76
2023/06/10 02:21:54;;;;;;;13.90;12.43;;;17.90;99.90;;;;;;2096730;28;20210;-75
2023/06/10 02:22:55;;;;;;;13.90;12.50;;;17.90;99.90;;;;;;2088429;28;20067;-75
2023/06/10 02:23:55;;;;;;;13.75;12.45;;;17.90;99.90;;;;;;2096852;28;20070;-74
2023/06/10 02:24:56;;;;;;;13.43;11.98;;;17.90;99.90;;;;;;2102104;28;20055;-75
2023/06/10 02:25:56;;;;;;;13.07;11.80;;;17.90;99.90;;;;;;2096999;28;20024;-75
2023/06/10 02:27:00;;;;;;;13.70;12.40;;;17.90;99.90;;;;;;2095292;28;20069;-74
2023/06/10 02:28:03;;;;;;;14.27;12.23;;;17.80;99.90;;;;;;2099137;28;20448;-75
2023/06/10 02:29:03;;;;;;;16.13;12.60;;;17.80;99.90;;;;;;2100992;28;20092;-75
2023/06/10 02:30:05;;;;;;;14.00;12.52;;;17.80;99.90;;;;;;2097464;28;20031;-75
2023/06/10 02:31:09;;;;;;;15.02;12.68;;;17.80;99.90;;;;;;2096266;28;20025;-75
2023/06/10 02:32:10;;;;;;;14.43;12.93;;;17.70;99.90;;;;;;2088488;28;20415;-75
2023/06/10 02:33:10;;;;;;;14.35;12.85;;;17.70;99.90;;;;;;2085335;28;20036;-75
2023/06/10 02:34:12;;;;;;;14.52;13.02;;;17.70;99.90;;;;;;2091866;28;20128;-75
2023/06/10 02:35:12;;;;;;;14.43;13.10;;;17.70;99.90;;;;;;2083088;28;20814;-74
2023/06/10 02:36:15;;;;;;;14.65;13.10;;;17.70;99.90;;;;;;2092411;28;20119;-75
2023/06/10 02:37:16;;;;;;;14.48;13.00;;;17.70;99.90;;;;;;2094490;28;20032;-75
2023/06/10 02:38:16;;;;;;;14.55;13.15;;;17.70;99.90;;;;;;2093969;28;20556;-75
2023/06/10 02:39:17;;;;;;;14.15;12.63;;;17.70;99.90;;;;;;2085561;28;20317;-75
2023/06/10 02:40:20;;;;;;;14.60;13.25;;;17.70;99.90;;;;;;2085129;28;20419;-74
2023/06/10 02:41:21;;;;;;;13.88;12.50;;;17.70;99.90;;;;;;2094984;28;20051;-74
2023/06/10 02:42:23;;;;;;;14.30;12.82;;;17.60;99.90;;;;;;2085190;28;20108;-75
2023/06/10 02:43:24;;;;;;;15.00;13.32;;;17.70;99.90;;;;;;2085155;28;20033;-75
2023/06/10 02:44:25;;;;;;;15.93;13.45;;;17.60;99.90;;;;;;2088305;28;20493;-76
2023/06/10 02:45:26;;;;;;;14.55;13.15;;;17.60;99.90;;;;;;2095801;28;20036;-76
2023/06/10 02:46:28;;;;;;;14.65;13.25;;;17.60;99.90;;;;;;2097823;28;20247;-76
2023/06/10 02:47:29;;;;;;;14.70;13.30;;;17.60;99.90;;;;;;2092643;28;20484;-76
2023/06/10 02:48:30;;;;;;;14.05;12.75;;;17.60;99.90;;;;;;2089839;28;20064;-76
2023/06/10 02:49:32;;;;;;;14.38;12.98;;;17.60;99.90;;;;;;2083225;28;20028;-75
2023/06/10 02:50:33;;;;;;;15.43;13.82;;;17.60;99.90;;;;;;2086419;28;20174;-76
2023/06/10 02:51:42;;;;;;;15.27;13.65;;;17.60;99.90;;;;;;2094751;28;20164;-75
2023/06/10 02:52:43;;;;;;;15.05;13.45;;;17.50;99.90;;;;;;2091834;28;20028;-75
2023/06/10 02:53:45;;;;;;;16.58;13.88;;;17.50;99.90;;;;;;2090463;28;20530;-75
2023/06/10 02:54:47;;;;;;;15.55;14.00;;;17.50;99.90;;;;;;2085747;28;20029;-75
2023/06/10 02:55:48;;;;;;;15.15;13.55;;;17.50;99.90;;;;;;2088538;28;20703;-76
2023/06/10 02:56:52;;;;;;;15.73;14.02;;;17.50;99.90;;;;;;2089428;28;20033;-76
2023/06/10 02:57:56;;;;;;;14.63;13.23;;;17.50;99.90;;;;;;2079755;28;20034;-76
2023/06/10 02:58:59;;;;;;;15.02;13.57;;;17.50;99.90;;;;;;2077567;28;20029;-76
2023/06/10 03:00:01;;;;;;;15.00;13.52;;;17.50;99.90;;;;;;2069163;28;20039;-76
2023/06/10 03:01:02;;;;;;;15.07;13.57;;;17.50;99.90;;;;;;2083352;28;20029;-74
2023/06/10 03:02:11;;;;;;;15.00;13.50;;;17.50;99.90;;;;;;2090791;28;20116;-75
2023/06/10 03:03:18;;;;;;;15.40;13.80;;;17.50;99.90;;;;;;2099628;28;20042;-75
2023/06/10 03:04:28;;;;;;;15.82;14.13;;;17.50;99.90;;;;;;2082832;28;20331;-75
2023/06/10 03:05:36;;;;;;;15.38;13.77;;;17.50;99.90;;;;;;2094185;28;20091;-74
2023/06/10 03:06:40;;;;;;;14.43;12.93;;;17.50;99.90;;;;;;2094364;28;20549;-75
2023/06/10 03:07:48;;;;;;;15.82;14.15;;;17.40;99.90;;;;;;2100466;28;20042;-75
2023/06/10 03:08:49;;;;;;;17.50;13.82;;;17.40;99.90;;;;;;2091734;28;20155;-75
2023/06/10 03:09:53;;;;;;;15.25;13.75;;;17.50;99.90;;;;;;2086032;28;20028;-75
2023/06/10 03:10:53;;;;;;;15.35;13.85;;;17.50;99.90;;;;;;2089209;28;20123;-75
2023/06/10 03:11:55;;;;;;;15.38;13.88;;;17.50;99.90;;;;;;2097339;28;20450;-76
2023/06/10 03:12:55;;;;;;;15.63;14.13;;;17.40;99.90;;;;;;2093534;28;20024;-75
2023/06/10 03:13:58;;;;;;;15.30;13.80;;;17.40;99.90;;;;;;2092782;28;20123;-75
2023/06/10 03:15:01;;;;;;;16.33;14.32;;;17.50;99.90;;;;;;2092967;28;20040;-76
2023/06/10 03:16:04;;;;;;;14.88;13.40;;;17.50;99.90;;;;;;2084959;28;20516;-75
2023/06/10 03:17:08;;;;;;;15.13;13.63;;;17.50;99.90;;;;;;2096356;28;20447;-75
2023/06/10 03:18:08;;;;;;;16.05;13.95;;;17.50;99.90;;;;;;2090238;28;20038;-76
2023/06/10 03:19:09;;;;;;;16.85;14.02;;;17.50;99.90;;;;;;2083728;28;20021;-76
2023/06/10 03:20:15;;;;;;;15.75;14.10;;;17.50;99.90;;;;;;2088868;28;20031;-76
2023/06/10 03:21:16;;;;;;;15.88;14.27;;;17.50;99.90;;;;;;2091046;28;20036;-76
2023/06/10 03:22:17;;;;;;;16.42;14.68;;;17.50;99.90;;;;;;2101665;28;20066;-75
2023/06/10 03:23:27;;;;;;;15.10;13.50;;;17.50;99.90;;;;;;2093133;28;20027;-76
2023/06/10 03:24:28;;;;;;;15.93;14.27;;;17.50;99.90;;;;;;2101496;28;20027;-75
2023/06/10 03:25:30;;;;;;;16.23;14.63;;;17.50;99.90;;;;;;2103519;27;20028;-75
2023/06/10 03:26:31;;;;;;;15.57;14.00;;;17.50;99.90;;;;;;2098159;28;20485;-76
2023/06/10 03:27:32;;;;;;;16.27;14.68;;;17.50;99.90;;;;;;2089591;28;20037;-74
2023/06/10 03:28:36;;;;;;;16.20;14.65;;;17.50;99.90;;;;;;2097450;28;20420;-75
2023/06/10 03:29:37;;;;;;;16.20;14.60;;;17.50;99.90;;;;;;2084335;28;20083;-75
2023/06/10 03:30:39;;;;;;;17.92;14.98;;;17.50;99.90;;;;;;2075399;28;20786;-75
2023/06/10 03:31:40;;;;;;;16.40;14.75;;;17.50;99.90;;;;;;2094542;28;20105;-77
2023/06/10 03:32:43;;;;;;;16.92;15.13;;;17.50;99.90;;;;;;2102761;28;20067;-75
2023/06/10 03:33:45;;;;;;;16.50;14.90;;;17.50;99.90;;;;;;2100954;28;20028;-74
2023/06/10 03:34:47;;;;;;;17.20;14.57;;;17.50;99.90;;;;;;2100663;28;20147;-76
2023/06/10 03:35:48;;;;;;;17.15;15.45;;;17.50;99.90;;;;;;2097940;28;20823;-75
2023/06/10 03:36:48;;;;;;;16.67;15.07;;;17.50;99.90;;;;;;2099200;28;20032;-75
2023/06/10 03:37:49;;;;;;;16.80;15.10;;;17.50;99.90;;;;;;2102896;28;20547;-74
2023/06/10 03:38:51;;;;;;;16.17;14.50;;;17.60;99.90;;;;;;2097173;28;20052;-75
2023/06/10 03:39:52;;;;;;;17.38;15.68;;;17.60;99.90;;;;;;2087731;28;20107;-74
2023/06/10 03:40:53;;;;;;;17.05;15.38;;;17.60;99.90;;;;;;2067839;28;20021;-73
2023/06/10 03:41:53;;;;;;;16.48;14.77;;;17.60;99.90;;;;;;2087674;28;20021;-74
2023/06/10 03:42:54;;;;;;;15.77;14.18;;;17.60;99.90;;;;;;2097192;28;20395;-75
2023/06/10 03:43:55;;;;;;;15.77;14.18;;;17.60;99.90;;;;;;2089606;28;20074;-75
2023/06/10 03:44:56;;;;;;;16.27;14.68;;;17.60;99.90;;;;;;2083133;28;20017;-75
2023/06/10 03:45:57;;;;;;;18.13;16.10;;;17.70;99.90;;;;;;2083564;28;20146;-76
2023/06/10 03:46:59;;;;;;;19.52;17.20;;;17.70;99.90;;;;;;2090925;28;20024;-76
2023/06/10 03:48:01;;;;;;;18.70;16.90;;;17.70;99.90;;;;;;2097220;28;20052;-76
2023/06/10 03:49:09;;;;;;;18.30;16.15;;;17.60;99.90;;;;;;2088861;28;20370;-76
2023/06/10 03:50:10;;;;;;;17.42;15.82;;;17.70;99.90;;;;;;2086178;28;20048;-76
2023/06/10 03:51:11;;;;;;;18.35;16.40;;;17.60;99.90;;;;;;2094305;28;20020;-76
2023/06/10 03:52:12;;;;;;;18.35;16.40;;;17.60;99.90;;;;;;2100867;28;20020;-75
2023/06/10 03:53:13;;;;;;;17.83;15.93;;;17.60;99.90;;;;;;2100868;28;20482;-76
2023/06/10 03:54:16;;;;;;;16.95;15.25;;;17.70;99.90;;;;;;2097906;28;20105;-76
2023/06/10 03:55:17;;;;;;;16.52;14.82;;;17.70;99.90;;;;;;2094405;28;20111;-75
2023/06/10 03:56:19;;;;;;;16.23;14.50;;;17.70;99.90;;;;;;2094327;28;20029;-75
2023/06/10 03:57:20;;;;;;;16.60;15.02;;;17.70;99.90;;;;;;2094062;28;20105;-76
2023/06/10 03:58:20;;;;;;;16.23;14.60;;;17.80;99.90;;;;;;2089817;28;20029;-75
2023/06/10 03:59:21;;;;;;;16.73;14.73;;;17.80;99.90;;;;;;2089480;28;20492;-75
2023/06/10 04:00:21;;;;;;;15.95;14.35;;;17.90;99.90;;;;;;2102160;28;20113;-75
2023/06/10 04:01:23;;;;;;;16.95;15.15;;;17.90;99.90;;;;;;2101426;28;20062;-77
2023/06/10 04:02:24;;;;;;;17.05;15.30;;;18.00;99.90;;;;;;2100491;28;20461;-77
2023/06/10 04:03:26;;;;;;;16.45;14.63;;;18.10;99.90;;;;;;2101396;28;20118;-75
2023/06/10 04:04:26;;;;;;;16.27;14.63;;;18.30;99.90;;;;;;2096707;28;20465;-75
2023/06/10 04:05:28;;;;;;;16.10;14.50;;;18.50;99.90;;;;;;2094007;28;20029;-76
2023/06/10 04:06:29;;;;;;;15.85;14.15;;;18.80;99.90;;;;;;2098768;28;20109;-76
2023/06/10 04:07:30;;;;;;;14.50;13.20;;;19.20;99.90;;;;;;2098558;28;20089;-75
2023/06/10 04:08:32;;;;;;;14.45;13.10;;;19.60;99.90;;;;;;2096232;28;20035;-76
2023/06/10 04:09:35;;;;;;;15.20;13.13;;;19.90;99.90;;;;;;2100339;28;20755;-76
2023/06/10 04:10:36;;;;;;;14.73;13.23;;;20.30;99.90;;;;;;2092534;28;20151;-76
2023/06/10 04:11:36;;;;;;;14.18;12.75;;;20.60;99.90;;;;;;2101260;28;20370;-76
2023/06/10 04:12:38;;;;;;;13.63;12.32;;;21.00;99.90;;;;;;2100486;28;20039;-76
2023/06/10 04:13:38;;;;;;;14.05;12.75;;;21.30;99.90;;;;;;2102140;28;20019;-77
2023/06/10 04:14:40;;;;;;;13.65;12.30;;;21.60;99.90;;;;;;2104126;28;20019;-76
2023/06/10 04:15:43;;;;;;;14.18;12.70;;;21.90;99.90;;;;;;2094379;28;20051;-76
2023/06/10 04:16:50;;;;;;;14.77;12.88;;;22.10;99.90;;;;;;2100370;28;20028;-77
2023/06/10 04:17:52;;;;;;;14.80;13.25;;;22.30;99.90;;;;;;2094509;28;20025;-77
2023/06/10 04:18:55;;;;;;;15.07;13.48;;;22.40;99.90;;;;;;2094703;28;20434;-77
2023/06/10 04:19:57;;;;;;;18.08;13.85;;;22.60;99.90;;;;;;2089295;28;20281;-77
2023/06/10 04:20:59;;;;;;;16.50;14.77;;;22.60;99.90;;;;;;2092121;28;20081;-77
2023/06/10 04:22:01;;;;;;;17.08;15.15;;;22.60;99.90;;;;;;2100162;28;20670;-78
2023/06/10 04:23:02;;;;;;;14.73;13.30;;;22.50;99.90;;;;;;2091985;28;20056;-77
2023/06/10 04:24:04;;;;;;;15.55;14.02;;;22.60;99.90;;;;;;2100468;28;20027;-77
2023/06/10 04:25:08;;;;;;;15.50;13.90;;;22.70;99.90;;;;;;2092237;28;20522;-76
2023/06/10 04:26:12;;;;;;;15.70;13.95;;;22.80;99.90;;;;;;2092961;28;20025;-77
2023/06/10 04:27:12;;;;;;;14.73;13.23;;;22.90;99.90;;;;;;2096850;28;20518;-77
2023/06/10 04:28:13;;;;;;;14.10;12.40;;;23.00;99.90;;;;;;2091238;28;20020;-77
2023/06/10 04:29:15;;;;;;;16.25;13.32;;;23.10;99.90;;;;;;2090496;28;20035;-76
2023/06/10 04:30:16;;;;;;;16.83;13.82;;;23.30;99.90;;;;;;2092162;28;20548;-76
2023/06/10 04:31:17;;;;;;;14.95;13.45;;;23.30;99.90;;;;;;2079250;28;20737;-75
2023/06/10 04:32:18;;;;;;;14.95;13.38;;;23.50;99.90;;;;;;2089311;28;20515;-75
2023/06/10 04:33:19;;;;;;;15.25;13.65;;;23.50;99.90;;;;;;2093103;28;20029;-76
2023/06/10 04:34:19;;;;;;;15.15;13.20;;;23.60;99.90;;;;;;2089636;28;20082;-76
2023/06/10 04:35:20;;;;;;;15.15;13.65;;;23.70;99.90;;;;;;2087243;28;20123;-77
2023/06/10 04:36:23;;;;;;;15.50;13.90;;;23.80;99.90;;;;;;2078925;28;20459;-75
2023/06/10 04:37:25;;;;;;;15.77;14.20;;;23.80;99.90;;;;;;2088426;28;20056;-76
2023/06/10 04:38:26;;;;;;;15.40;13.70;;;23.80;99.90;;;;;;2085735;28;20035;-76
2023/06/10 04:39:27;;;;;;;16.50;13.48;;;23.70;99.90;;;;;;2094427;28;20029;-76
2023/06/10 04:40:27;;;;;;;16.38;13.77;;;23.80;99.90;;;;;;2094678;28;20024;-76
2023/06/10 04:41:28;;;;;;;15.27;13.48;;;23.80;99.90;;;;;;2097298;28;20592;-76
2023/06/10 04:42:29;;;;;;;15.27;13.77;;;23.90;99.90;;;;;;2087174;28;20524;-75
2023/06/10 04:43:30;;;;;;;15.25;13.68;;;24.00;99.90;;;;;;2093325;28;20527;-76
2023/06/10 04:44:31;;;;;;;14.82;12.95;;;24.00;99.90;;;;;;2095513;28;20020;-76
2023/06/10 04:45:32;;;;;;;15.25;13.50;;;24.00;99.90;;;;;;2099003;28;20620;-75
2023/06/10 04:46:34;;;;;;;15.18;13.55;;;24.00;99.90;;;;;;2097039;28;20047;-76
2023/06/10 04:47:35;;;;;;;16.13;13.65;;;24.10;99.90;;;;;;2089882;28;20016;-75
2023/06/10 04:48:36;;;;;;;17.15;13.20;;;24.20;99.90;;;;;;2086217;28;20029;-76
2023/06/10 04:49:38;;;;;;;15.20;13.60;;;24.10;99.90;;;;;;2086400;28;20036;-76
2023/06/10 04:50:38;;;;;;;14.63;13.23;;;24.20;99.90;;;;;;2091078;28;20584;-76
2023/06/10 04:51:39;;;;;;;15.80;13.50;;;24.30;99.90;;;;;;2098967;28;20111;-76
2023/06/10 04:52:41;;;;;;;14.77;13.13;;;24.30;99.90;;;;;;2102499;28;20020;-75
2023/06/10 04:53:42;;;;;;;15.48;13.85;;;24.30;99.90;;;;;;2088443;28;20112;-75
2023/06/10 04:54:43;;;;;;;17.08;13.07;;;24.30;99.90;;;;;;2095742;28;20036;-75
2023/06/10 04:55:43;;;;;;;17.13;13.95;;;24.30;99.90;;;;;;2093842;28;20369;-75
2023/06/10 04:56:45;;;;;;;15.50;13.90;;;24.30;99.90;;;;;;2101110;28;20081;-75
2023/06/10 04:57:45;;;;;;;15.13;13.63;;;24.30;99.90;;;;;;2100341;28;20528;-75
2023/06/10 04:58:46;;;;;;;14.18;12.50;;;24.30;99.90;;;;;;2094823;28;20036;-76
2023/06/10 04:59:47;;;;;;;13.88;12.38;;;24.40;99.90;;;;;;2096941;28;20032;-76
2023/06/10 05:00:47;;;;;;;16.73;13.05;;;24.50;99.90;;;;;;2097792;28;20031;-76
2023/06/10 05:01:48;;;;;;;17.35;13.00;;;24.60;99.90;;;;;;2100859;28;20123;-75
2023/06/10 05:02:49;;;;;;;14.98;13.27;;;24.70;99.90;;;;;;2099910;28;20028;-75
2023/06/10 05:03:50;;;;;;;17.23;13.32;;;24.80;99.90;;;;;;2092791;28;20250;-78
2023/06/10 05:04:50;;;;;;;15.40;13.13;;;24.90;99.90;;;;;;2100088;28;20575;-76
2023/06/10 05:05:51;;;;;;;13.93;12.50;;;25.00;99.90;;;;;;2100250;28;20544;-76
2023/06/10 05:06:51;;;;;;;13.75;12.35;;;25.00;99.90;;;;;;2092469;28;20055;-75
2023/06/10 05:07:52;;;;;;;13.63;12.25;;;25.10;99.90;;;;;;2093479;28;20595;-75
2023/06/10 05:08:53;;;;;;;14.40;12.93;;;25.20;99.90;;;;;;2090293;28;20028;-75
2023/06/10 05:09:53;;;;;;;14.90;13.40;;;25.20;99.90;;;;;;2093753;28;20037;-75
2023/06/10 05:10:54;;;;;;;15.10;13.20;;;25.20;99.90;;;;;;2101608;28;20131;-75
2023/06/10 05:11:54;;;;;;;14.75;12.82;;;25.20;99.90;;;;;;2092325;28;20036;-76
2023/06/10 05:12:55;;;;;;;16.70;12.68;;;25.30;99.90;;;;;;2093996;28;20555;-77
2023/06/10 05:13:55;;;;;;;14.73;13.23;;;25.40;99.70;;;;;;2097605;28;20115;-76
2023/06/10 05:14:56;;;;;;;16.83;13.52;;;25.40;99.00;;;;;;2097067;28;20056;-76
2023/06/10 05:15:57;;;;;;;15.25;13.65;;;25.40;98.90;;;;;;2094283;28;20078;-76